Argent Gerbera — V7UC4 — position and weather

sailwx.info

Track history (hours):
 
Tides and Currents Weather Stations Pressure Air Temp Water Temp Dewpoint Dewpoint Depression Visibility Wind Speed Wind Dir Waves Ship Positions

Argent Gerbera

Last reported at 2017-Nov-26 14:25 UTC. Time now 2017-Dec-15 11:49 UTC.
Position N 36°11' E 014°49'.
Warning: this ship's position is 18 days out of date.

Length 175 m; draft 11.1 m.

Type: Ship (hazmat cat C). MMSI: 538003929.

Date/timePositionNaut miles runAvg speedWind from/ knotsBaromVisibWave heightAir tempDewpointWater temp
2017-Nov-26 14:25N 36°11' E 014°49'614.9
2017-Nov-26 14:00N 36°13' E 014°41'714.8
2017-Nov-26 13:30N 36°15' E 014°32'714.7
2017-Nov-26 13:00N 36°18' E 014°24'714.7
2017-Nov-26 12:30N 36°21' E 014°16'714.7
2017-Nov-26 12:00N 36°24' E 014°07'714.5
2017-Nov-26 11:30N 36°27' E 013°59'814.5
2017-Nov-26 10:59N 36°30' E 013°51'814.5
2017-Nov-26 10:25N 36°33' E 013°41'1014.5
2017-Nov-26 09:43N 36°37' E 013°30'414.5
2017-Nov-26 09:26N 36°39' E 013°25'1214.5
2017-Nov-26 08:38N 36°44' E 013°12'214.5
2017-Nov-26 08:30N 36°45' E 013°10'15814.6
2017-Nov-25 21:40N 37°48' E 010°08'315.0
2017-Nov-25 21:30N 37°49' E 010°04'1514.8
2017-Nov-25 20:27N 37°53' E 009°46'1414.6
2017-Nov-25 19:28N 37°55' E 009°28'814.5
2017-Nov-25 18:54N 37°55' E 009°17'1114.7
2017-Nov-25 18:09N 37°55' E 009°03'614.7
2017-Nov-25 17:44N 37°55' E 008°55'314.8
2017-Nov-25 17:30N 37°55' E 008°51'1515.0
2017-Nov-25 16:28N 37°56' E 008°32'714.7
2017-Nov-25 16:00N 37°56' E 008°23'17514.7
2017-Nov-25 04:08N 37°35' E 004°43'214.7
2017-Nov-25 04:00N 37°34' E 004°41'714.8
2017-Nov-25 03:30N 37°33' E 004°32'814.7
2017-Nov-25 02:59N 37°31' E 004°22'1114.8
2017-Nov-25 02:14N 37°29' E 004°09'415.0
2017-Nov-25 02:00N 37°28' E 004°04'1314.7
2017-Nov-25 01:09N 37°26' E 003°49'214.9
2017-Nov-25 01:00N 37°26' E 003°46'1814.8
2017-Nov-24 23:48N 37°22' E 003°24'414.9
2017-Nov-24 23:30N 37°21' E 003°19'815.0
2017-Nov-24 22:59N 37°20' E 003°09'714.8
2017-Nov-24 22:30N 37°18' E 003°00'714.9
2017-Nov-24 22:00N 37°17' E 002°51'815.1
2017-Nov-24 21:30N 37°16' E 002°42'714.9
2017-Nov-24 21:00N 37°14' E 002°32'714.8
2017-Nov-24 20:30N 37°13' E 002°23'714.9
2017-Nov-24 20:00N 37°12' E 002°14'714.7
2017-Nov-24 19:30N 37°10' E 002°05'714.9
2017-Nov-24 19:00N 37°09' E 001°56'814.9
2017-Nov-24 18:30N 37°07' E 001°47'714.8
2017-Nov-24 18:00N 37°06' E 001°38'714.5
2017-Nov-24 17:30N 37°04' E 001°29'714.8
2017-Nov-24 17:00N 37°03' E 001°20'814.7
2017-Nov-24 16:29N 37°02' E 001°10'714.7
2017-Nov-24 16:00N 37°00' E 001°02'714.8
2017-Nov-24 15:30N 36°58' E 000°53'714.9
2017-Nov-24 15:00N 36°56' E 000°44'714.8
2017-Nov-24 14:30N 36°54' E 000°35'714.8
2017-Nov-24 14:00N 36°52' E 000°26'714.8
2017-Nov-24 13:30N 36°50' E 000°17'714.8
2017-Nov-24 13:00N 36°47' E 000°08'815.2
2017-Nov-24 12:30N 36°45' W 000°01'1715.2
2017-Nov-24 11:25N 36°40' W 000°20'1014.8
2017-Nov-24 10:42N 36°38' W 000°33'514.9
2017-Nov-24 10:23N 36°36' W 000°39'4014.9
2017-Nov-24 07:41N 36°23' W 001°26'314.7
2017-Nov-24 07:30N 36°22' W 001°29'814.8
2017-Nov-24 06:57N 36°19' W 001°39'1414.9
2017-Nov-24 06:02N 36°15' W 001°55'15814.8
2017-Nov-23 19:20N 36°04' W 005°10'514.5
2017-Nov-23 19:00N 36°05' W 005°16'3 0.4
2017-Nov-23 11:08N 36°06' W 005°20'1 6.5
2017-Nov-23 11:00N 36°06' W 005°19'4 8.0
2017-Nov-23 10:30N 36°07' W 005°14'2 2.9
2017-Nov-23 09:56N 36°06' W 005°14'3 7.4
2017-Nov-23 09:30N 36°03' W 005°16'611.6
2017-Nov-23 09:01N 35°59' W 005°22'611.5
2017-Nov-23 08:30N 35°58' W 005°29'5511.9
2017-Nov-23 03:55N 35°31' W 006°27'613.7
2017-Nov-23 03:30N 35°27' W 006°32'713.5
2017-Nov-23 03:00N 35°22' W 006°38'612.3
2017-Nov-23 02:30N 35°17' W 006°42'712.9
2017-Nov-23 02:00N 35°11' W 006°46'613.3
2017-Nov-23 01:30N 35°07' W 006°52'713.1
2017-Nov-23 01:00N 35°02' W 006°57'713.7
2017-Nov-23 00:30N 34°56' W 007°02'1113.4
2017-Nov-22 23:42N 34°48' W 007°11'613.0
2017-Nov-22 23:15N 34°44' W 007°16'313.3
2017-Nov-22 23:00N 34°42' W 007°19'713.6
2017-Nov-22 22:30N 34°37' W 007°24'713.3
2017-Nov-22 22:00N 34°32' W 007°30'713.3
2017-Nov-22 21:30N 34°27' W 007°35'713.8
2017-Nov-22 21:00N 34°22' W 007°41'  
2017-Nov-18 20:54N 33°07' W 008°43'  
Track history (hours):
 
Tides and Currents Weather Stations Pressure Air Temp Water Temp Dewpoint Dewpoint Depression Visibility Wind Speed Wind Dir Waves Ship Positions

Argent Gerbera

Last reported at 2017-Nov-26 14:25 UTC. Time now 2017-Dec-15 11:49 UTC.
Position N 36°11' E 014°49'.
Warning: this ship's position is 18 days out of date.

Length 175 m; draft 11.1 m.

Type: Ship (hazmat cat C). MMSI: 538003929.

Date/timePositionNaut miles runAvg speedWind from/ knotsBaromVisibWave heightAir tempDewpointWater temp
2017-Nov-26 14:25N 36°11' E 014°49'614.9
2017-Nov-26 14:00N 36°13' E 014°41'714.8
2017-Nov-26 13:30N 36°15' E 014°32'714.7
2017-Nov-26 13:00N 36°18' E 014°24'714.7
2017-Nov-26 12:30N 36°21' E 014°16'714.7
2017-Nov-26 12:00N 36°24' E 014°07'714.5
2017-Nov-26 11:30N 36°27' E 013°59'814.5
2017-Nov-26 10:59N 36°30' E 013°51'814.5
2017-Nov-26 10:25N 36°33' E 013°41'1014.5
2017-Nov-26 09:43N 36°37' E 013°30'414.5
2017-Nov-26 09:26N 36°39' E 013°25'1214.5
2017-Nov-26 08:38N 36°44' E 013°12'214.5
2017-Nov-26 08:30N 36°45' E 013°10'15814.6
2017-Nov-25 21:40N 37°48' E 010°08'315.0
2017-Nov-25 21:30N 37°49' E 010°04'1514.8
2017-Nov-25 20:27N 37°53' E 009°46'1414.6
2017-Nov-25 19:28N 37°55' E 009°28'814.5
2017-Nov-25 18:54N 37°55' E 009°17'1114.7
2017-Nov-25 18:09N 37°55' E 009°03'614.7
2017-Nov-25 17:44N 37°55' E 008°55'314.8
2017-Nov-25 17:30N 37°55' E 008°51'1515.0
2017-Nov-25 16:28N 37°56' E 008°32'714.7
2017-Nov-25 16:00N 37°56' E 008°23'17514.7
2017-Nov-25 04:08N 37°35' E 004°43'214.7
2017-Nov-25 04:00N 37°34' E 004°41'714.8
2017-Nov-25 03:30N 37°33' E 004°32'814.7
2017-Nov-25 02:59N 37°31' E 004°22'1114.8
2017-Nov-25 02:14N 37°29' E 004°09'415.0
2017-Nov-25 02:00N 37°28' E 004°04'1314.7
2017-Nov-25 01:09N 37°26' E 003°49'214.9
2017-Nov-25 01:00N 37°26' E 003°46'1814.8
2017-Nov-24 23:48N 37°22' E 003°24'414.9
2017-Nov-24 23:30N 37°21' E 003°19'815.0
2017-Nov-24 22:59N 37°20' E 003°09'714.8
2017-Nov-24 22:30N 37°18' E 003°00'714.9
2017-Nov-24 22:00N 37°17' E 002°51'815.1
2017-Nov-24 21:30N 37°16' E 002°42'714.9
2017-Nov-24 21:00N 37°14' E 002°32'714.8
2017-Nov-24 20:30N 37°13' E 002°23'714.9
2017-Nov-24 20:00N 37°12' E 002°14'714.7
2017-Nov-24 19:30N 37°10' E 002°05'714.9
2017-Nov-24 19:00N 37°09' E 001°56'814.9
2017-Nov-24 18:30N 37°07' E 001°47'714.8
2017-Nov-24 18:00N 37°06' E 001°38'714.5
2017-Nov-24 17:30N 37°04' E 001°29'714.8
2017-Nov-24 17:00N 37°03' E 001°20'814.7
2017-Nov-24 16:29N 37°02' E 001°10'714.7
2017-Nov-24 16:00N 37°00' E 001°02'714.8
2017-Nov-24 15:30N 36°58' E 000°53'714.9
2017-Nov-24 15:00N 36°56' E 000°44'714.8
2017-Nov-24 14:30N 36°54' E 000°35'714.8
2017-Nov-24 14:00N 36°52' E 000°26'714.8
2017-Nov-24 13:30N 36°50' E 000°17'714.8
2017-Nov-24 13:00N 36°47' E 000°08'815.2
2017-Nov-24 12:30N 36°45' W 000°01'1715.2
2017-Nov-24 11:25N 36°40' W 000°20'1014.8
2017-Nov-24 10:42N 36°38' W 000°33'514.9
2017-Nov-24 10:23N 36°36' W 000°39'4014.9
2017-Nov-24 07:41N 36°23' W 001°26'314.7
2017-Nov-24 07:30N 36°22' W 001°29'814.8
2017-Nov-24 06:57N 36°19' W 001°39'1414.9
2017-Nov-24 06:02N 36°15' W 001°55'15814.8
2017-Nov-23 19:20N 36°04' W 005°10'514.5
2017-Nov-23 19:00N 36°05' W 005°16'3 0.4
2017-Nov-23 11:08N 36°06' W 005°20'1 6.5
2017-Nov-23 11:00N 36°06' W 005°19'4 8.0
2017-Nov-23 10:30N 36°07' W 005°14'2 2.9
2017-Nov-23 09:56N 36°06' W 005°14'3 7.4
2017-Nov-23 09:30N 36°03' W 005°16'611.6
2017-Nov-23 09:01N 35°59' W 005°22'611.5
2017-Nov-23 08:30N 35°58' W 005°29'5511.9
2017-Nov-23 03:55N 35°31' W 006°27'613.7
2017-Nov-23 03:30N 35°27' W 006°32'713.5
2017-Nov-23 03:00N 35°22' W 006°38'612.3
2017-Nov-23 02:30N 35°17' W 006°42'712.9
2017-Nov-23 02:00N 35°11' W 006°46'613.3
2017-Nov-23 01:30N 35°07' W 006°52'713.1
2017-Nov-23 01:00N 35°02' W 006°57'713.7
2017-Nov-23 00:30N 34°56' W 007°02'1113.4
2017-Nov-22 23:42N 34°48' W 007°11'613.0
2017-Nov-22 23:15N 34°44' W 007°16'313.3
2017-Nov-22 23:00N 34°42' W 007°19'713.6
2017-Nov-22 22:30N 34°37' W 007°24'713.3
2017-Nov-22 22:00N 34°32' W 007°30'713.3
2017-Nov-22 21:30N 34°27' W 007°35'713.8
2017-Nov-22 21:00N 34°22' W 007°41'  
2017-Nov-18 20:54N 33°07' W 008°43'  

Dump ship's entire track history